Latest Coastal Weather Observations for Marion Reef

IDQ60701

Issued at 5:21 am EST Saturday 25 February 2017 (issued every 10 minutes, with the page automatically refreshed every 10 minutes)

About coastal observations | Map of coastal stations | Coastal observations for QLD | Marine services | Other Formats
Station Details ID: 200704 Name: MARION REEF Lat: -19.10 Lon: 152.39 Height: 2.0 m
Data from the previous 72 hours. | See also: Recent months for locations in Queensland
Date/Time
EST
Temp
°C
Wind Pressure Rain since
9am
mm
Weather Cloud Vis
km
Sea
Height
m
Swell
Dir  Spd
kts
Gust
kts
hPa Trend Height
m
Period
s
Dir
25/05:00am 28.0 SE 15 17 1009.8 - - - - - - - - -
25/04:30am 28.0 SE 16 19 1009.7 - - - - - - - - -
25/04:00am 28.5 SE 15 18 1009.7 - - - - - - - - -
25/03:30am 28.3 SE 17 20 1009.7 - - - - - - - - -
25/03:00am 28.1 SE 17 20 1009.6 - - - - - - - - -
25/02:30am 28.2 SE 16 19 1009.8 - - - - - - - - -
25/02:00am 28.3 SE 17 20 1009.7 - - - - - - - - -
25/01:30am 28.1 SE 17 21 1010.2 - - - - - - - - -
25/01:00am 28.1 SE 18 21 1010.4 - - - - - - - - -
25/12:30am 28.2 SE 19 22 1010.6 - - - - - - - - -
25/12:00am 28.5 SE 17 21 1010.9 - - - - - - - - -
 
Date/Time
EST
Temp
°C
Wind Pressure Rain since
9am
mm
Weather Cloud Vis
km
Sea
Height
m
Swell
Dir  Spd
kts
Gust
kts
hPa Trend Height
m
Period
s
Dir
24/11:30pm 28.3 SE 19 21 1011.2 - - - - - - - - -
24/11:00pm 28.6 SE 19 22 1011.5 - - - - - - - - -
24/10:30pm 28.5 SE 18 21 1011.6 - - - - - - - - -
24/10:00pm 28.4 SE 18 22 1011.7 - - - - - - - - -
24/09:30pm 28.6 SE 19 22 1011.9 - - - - - - - - -
24/09:00pm 28.6 SE 18 21 1011.9 - - - - - - - - -
24/08:30pm 28.4 SE 18 21 1012.0 - - - - - - - - -
24/08:00pm 28.5 SE 19 22 1011.7 - - - - - - - - -
24/07:30pm 28.3 SE 19 22 1011.5 - - - - - - - - -
24/07:00pm 28.5 SE 19 23 1011.2 - - - - - - - - -
24/06:30pm 28.5 SE 18 21 1011.0 - - - - - - - - -
24/06:00pm 28.3 SE 19 21 1010.6 - - - - - - - - -
24/05:30pm 28.7 SE 18 21 1010.3 - - - - - - - - -
24/05:00pm 28.5 SE 18 20 1010.1 - - - - - - - - -
24/04:30pm 28.5 SE 18 20 1010.0 - - - - - - - - -
24/04:00pm 28.7 SE 17 19 1010.0 - - - - - - - - -
24/03:30pm 28.7 SE 17 19 1010.1 - - - - - - - - -
24/03:00pm 28.7 SE 15 17 1010.2 - - - - - - - - -
24/02:30pm 28.5 SE 14 16 1010.5 - - - - - - - - -
24/02:00pm 28.6 SE 14 17 1010.6 - - - - - - - - -
24/01:30pm 28.8 SE 15 17 1010.9 - - - - - - - - -
24/01:00pm 28.7 SE 15 16 1011.1 - - - - - - - - -
24/12:30pm 28.6 ESE 14 16 1011.7 - - - - - - - - -
24/12:00pm 28.9 ESE 15 18 1011.8 - - - - - - - - -
24/11:30am 28.5 ESE 16 18 1012.1 - - - - - - - - -
24/11:00am 28.5 ESE 15 16 1012.3 - - - - - - - - -
24/10:30am 28.5 SE 15 17 1012.6 - - - - - - - - -
24/10:00am 28.7 SE 15 17 1012.4 - - - - - - - - -
24/09:30am 28.3 SE 15 18 1012.7 - - - - - - - - -
24/09:00am 28.5 ESE 15 18 1012.5 - - - - - - - - -
24/08:30am 28.1 ESE 16 19 1012.6 - - - - - - - - -
24/08:00am 27.9 ESE 15 18 1012.5 - - - - - - - - -
24/07:30am 28.4 ESE 16 19 1012.5 - - - - - - - - -
24/07:00am 28.2 ESE 16 19 1012.2 - - - - - - - - -
24/06:30am 28.3 ESE 15 16 1012.2 - - - - - - - - -
24/06:00am 28.2 ESE 14 16 1011.9 - - - - - - - - -
24/05:30am 28.3 ESE 14 17 1011.7 - - - - - - - - -
24/05:00am 28.3 ESE 15 16 1011.4 - - - - - - - - -
24/04:30am 28.0 ESE 16 17 1011.2 - - - - - - - - -
24/04:00am 28.1 ESE 16 18 1011.1 - - - - - - - - -
24/03:30am 28.2 ESE 16 18 1011.2 - - - - - - - - -
24/03:00am 28.3 ESE 16 18 1011.2 - - - - - - - - -
24/02:30am 28.1 ESE 17 20 1011.2 - - - - - - - - -
24/02:00am 27.6 ESE 17 20 1011.4 - - - - - - - - -
24/01:30am 26.0 ESE 16 19 1012.0 - - - - - - - - -
24/01:00am 27.0 ESE 19 26 1012.2 - - - - - - - - -
24/12:53am 27.7 ESE 18 26 1012.2 - - - - - - - - -
24/12:30am 28.3 ESE 12 15 1012.5 - - - - - - - - -
24/12:00am 28.2 ESE 14 17 1012.5 - - - - - - - - -
 
Date/Time
EST
Temp
°C
Wind Pressure Rain since
9am
mm
Weather Cloud Vis
km
Sea
Height
m
Swell
Dir  Spd
kts
Gust
kts
hPa Trend Height
m
Period
s
Dir
23/11:30pm 27.7 SE 15 18 1012.7 - - - - - - - - -
23/11:00pm 28.3 ESE 14 17 1012.9 - - - - - - - - -
23/10:30pm 28.1 SE 14 17 1013.1 - - - - - - - - -
23/10:00pm 28.3 SE 14 16 1013.0 - - - - - - - - -
23/09:30pm 28.4 SE 13 16 1013.1 - - - - - - - - -
23/09:00pm 28.6 SE 15 17 1012.9 - - - - - - - - -
23/08:30pm 28.2 SE 16 18 1012.7 - - - - - - - - -
23/08:00pm 28.7 SE 14 16 1012.6 - - - - - - - - -
23/07:30pm 28.5 SE 13 16 1012.4 - - - - - - - - -
23/07:00pm 28.6 ESE 15 16 1012.1 - - - - - - - - -
23/06:30pm 28.3 SE 16 18 1011.9 - - - - - - - - -
23/06:00pm 28.5 SSE 15 18 1011.6 - - - - - - - - -
23/05:30pm 28.5 SSE 15 17 1011.4 - - - - - - - - -
23/05:00pm 28.6 SSE 15 17 1011.1 - - - - - - - - -
23/04:30pm 28.7 SE 15 17 1011.1 - - - - - - - - -
23/04:00pm 28.8 SE 14 16 1011.0 - - - - - - - - -
23/03:30pm 28.8 SSE 13 15 1011.0 - - - - - - - - -
23/03:00pm 28.9 SSE 13 15 1010.9 - - - - - - - - -
23/02:30pm 28.9 SSE 14 16 1011.1 - - - - - - - - -
23/02:00pm 28.8 SE 12 14 1011.1 - - - - - - - - -
23/01:30pm 28.7 SE 12 14 1011.6 - - - - - - - - -
23/01:00pm 28.9 SE 13 15 1011.7 - - - - - - - - -
23/12:30pm 29.0 SE 13 14 1012.2 - - - - - - - - -
23/12:00pm 28.7 SE 13 14 1012.4 - - - - - - - - -
23/11:30am 28.8 ESE 12 14 1012.8 - - - - - - - - -
23/11:00am 28.6 SE 13 15 1012.9 - - - - - - - - -
23/10:30am 28.7 SE 14 16 1013.2 - - - - - - - - -
23/10:00am 29.0 SE 13 14 1013.3 - - - - - - - - -
23/09:30am 29.0 ESE 13 14 1013.4 - - - - - - - - -
23/09:00am 28.5 ESE 13 15 1013.2 - - - - - - - - -
23/08:30am 28.8 ESE 13 16 1013.3 - - - - - - - - -
23/08:00am 28.6 ESE 13 15 1013.0 - - - - - - - - -
23/07:30am 28.6 E 13 15 1012.8 - - - - - - - - -
23/07:00am 28.5 E 14 16 1012.4 - - - - - - - - -
23/06:30am 28.6 E 14 16 1012.3 - - - - - - - - -
23/06:00am 28.6 E 15 17 1011.8 - - - - - - - - -
23/05:30am 28.5 ESE 15 18 1011.6 - - - - - - - - -
23/05:00am 28.5 ESE 16 19 1011.1 - - - - - - - - -
23/04:30am 28.4 ESE 17 19 1011.0 - - - - - - - - -
23/04:00am 28.6 E 17 21 1010.9 - - - - - - - - -
23/03:30am 27.9 SE 16 18 1011.0 - - - - - - - - -
23/03:00am 27.7 SE 19 22 1010.9 - - - - - - - - -
23/02:30am 28.2 ESE 18 21 1011.0 - - - - - - - - -
23/02:00am 28.3 ESE 19 22 1010.9 - - - - - - - - -
23/01:30am 28.3 SE 19 21 1011.2 - - - - - - - - -
23/01:00am 28.5 SE 19 23 1011.3 - - - - - - - - -
23/12:30am 28.5 ESE 20 23 1011.6 - - - - - - - - -
23/12:00am 28.7 ESE 20 24 1011.8 - - - - - - - - -
 
Date/Time
EST
Temp
°C
Wind Pressure Rain since
9am
mm
Weather Cloud Vis
km
Sea
Height
m
Swell
Dir  Spd
kts
Gust
kts
hPa Trend Height
m
Period
s
Dir
22/11:30pm 28.3 ESE 19 22 1012.2 - - - - - - - - -
22/11:00pm 28.4 ESE 20 22 1012.2 - - - - - - - - -
22/10:30pm 28.6 ESE 19 23 1012.4 - - - - - - - - -
22/10:00pm 28.1 SE 18 22 1012.2 - - - - - - - - -
22/09:30pm 27.3 ESE 22 26 1012.1 - - - - - - - - -
22/09:00pm 26.9 SE 22 28 1011.8 - - - - - - - - -
22/08:53pm 27.9 SE 18 28 1011.7 - - - - - - - - -
22/08:30pm 27.3 SSE 16 19 1011.7 - - - - - - - - -
22/08:00pm 26.2 SSE 21 27 1011.6 - - - - - - - - -
22/07:35pm 27.9 SE 18 28 1011.4 - - - - - - - - -
22/07:30pm 28.4 SE 18 21 1011.4 - - - - - - - - -
22/07:00pm 28.2 SE 18 21 1011.0 - - - - - - - - -
22/06:30pm 28.3 SE 18 21 1010.9 - - - - - - - - -
22/06:00pm 28.0 SE 18 21 1010.7 - - - - - - - - -
22/05:30pm 28.3 SE 17 20 1010.6 - - - - - - - - -
22/05:00pm 28.1 SE 15 18 1010.2 - - - - - - - - -
22/04:30pm 28.2 SE 16 19 1010.0 - - - - - - - - -
22/04:00pm 28.2 SE 18 21 1009.8 - - - - - - - - -
22/03:30pm 28.3 SE 18 21 1009.9 - - - - - - - - -
22/03:00pm 28.3 SE 18 20 1009.8 - - - - - - - - -
22/02:30pm 28.1 SE 18 21 1010.3 - - - - - - - - -
22/02:00pm 28.3 SE 19 21 1010.3 - - - - - - - - -
22/01:30pm 28.5 SE 19 21 1010.6 - - - - - - - - -
22/01:00pm 28.7 SE 18 20 1010.6 - - - - - - - - -
22/12:30pm 28.6 SE 18 21 1011.1 - - - - - - - - -
22/12:00pm 28.5 SE 18 - 1011.4 - - - - - - - - -
22/11:00am 28.7 SE 17 20 1012.1 - - - - - - - - -
22/10:30am 28.7 SE 18 21 1012.2 - - - - - - - - -
22/10:00am 28.6 SSE 18 23 1012.4 - - - - - - - - -
22/09:30am 28.8 SE 15 18 1012.6 - - - - - - - - -
22/09:00am 28.6 SE 15 18 1012.6 - - - - - - - - -
22/08:30am 28.4 SE 15 17 1012.7 - - - - - - - - -
22/08:00am 28.3 ESE 15 17 1012.4 - - - - - - - - -
22/07:30am 28.4 ESE 14 17 1012.4 - - - - - - - - -
22/07:00am 28.4 SE 12 14 1012.3 - - - - - - - - -
22/06:30am 28.2 SE 11 13 1012.0 - - - - - - - - -
22/06:00am 28.2 SE 10 13 1011.5 - - - - - - - - -
22/05:30am 28.2 ESE 11 13 1011.4 - - - - - - - - -

Other Formats:

Comma delimited format used in spreadsheet applications
http://www.bom.gov.au/fwo/IDQ60701/IDQ60701.94298.axf

JavaScript Object Notation format (JSON) in row-major order
http://www.bom.gov.au/fwo/IDQ60701/IDQ60701.94298.json